createdAt,value
2022-12-03T00:00:12.168Z,81.79
2022-12-03T00:02:41.378Z,82.01
2022-12-03T00:05:09.954Z,81.72
2022-12-03T00:07:37.632Z,81.97
2022-12-03T00:10:06.187Z,81.60
2022-12-03T00:12:33.834Z,81.75
2022-12-03T00:15:01.335Z,81.62
2022-12-03T00:17:28.960Z,82.06
2022-12-03T00:19:56.337Z,82.75
2022-12-03T00:22:24.084Z,82.59
2022-12-03T00:24:51.680Z,82.41
2022-12-03T00:27:19.841Z,82.07
2022-12-03T00:29:47.312Z,81.68
2022-12-03T00:32:15.099Z,82.64
2022-12-03T00:34:42.546Z,82.22
2022-12-03T00:37:09.972Z,82.61
2022-12-03T00:39:37.341Z,82.45
2022-12-03T00:42:05.343Z,82.21
2022-12-03T00:44:32.852Z,82.11
2022-12-03T00:47:00.127Z,82.03
2022-12-03T00:49:27.856Z,82.81
2022-12-03T00:51:55.349Z,82.76
2022-12-03T00:54:28.351Z,82.82
2022-12-03T00:56:59.115Z,82.99
2022-12-03T00:59:26.349Z,83.04
2022-12-03T01:01:53.785Z,82.38
2022-12-03T01:04:21.236Z,82.43
2022-12-03T01:06:48.845Z,82.30
2022-12-03T01:09:16.355Z,82.31
2022-12-03T01:11:43.749Z,82.81
2022-12-03T01:14:17.995Z,83.03
2022-12-03T01:16:46.124Z,82.63
2022-12-03T01:19:17.330Z,82.86
2022-12-03T01:21:46.755Z,83.01
2022-12-03T01:24:14.361Z,82.82
2022-12-03T01:26:42.129Z,82.63
2022-12-03T01:29:09.787Z,82.99
2022-12-03T01:31:55.735Z,82.64
2022-12-03T01:34:23.230Z,82.87
2022-12-03T01:36:52.882Z,82.25
2022-12-03T01:39:20.382Z,82.83
2022-12-03T01:41:49.048Z,82.98
2022-12-03T01:44:35.771Z,82.73
2022-12-03T01:47:05.947Z,82.67
2022-12-03T01:49:50.144Z,83.27
2022-12-03T01:52:22.147Z,83.31
2022-12-03T01:54:58.111Z,83.43
2022-12-03T01:57:28.076Z,83.74
2022-12-03T01:59:56.896Z,84.32
2022-12-03T02:02:31.778Z,84.00
2022-12-03T02:05:00.283Z,83.72
2022-12-03T02:07:28.854Z,84.07
2022-12-03T02:09:58.248Z,83.62
2022-12-03T02:12:32.665Z,83.41
2022-12-03T02:15:00.392Z,83.63
2022-12-03T02:17:28.387Z,83.90
2022-12-03T02:19:56.789Z,83.70
2022-12-03T02:22:42.268Z,83.61
2022-12-03T02:25:17.910Z,83.89
2022-12-03T02:27:45.604Z,84.19
2022-12-03T02:30:15.536Z,83.80
2022-12-03T02:32:43.175Z,83.55
2022-12-03T02:35:18.178Z,83.29
2022-12-03T02:37:46.801Z,83.22
2022-12-03T02:40:23.397Z,83.49
2022-12-03T02:42:52.054Z,83.37
2022-12-03T02:45:45.405Z,83.46
2022-12-03T02:48:16.403Z,83.61
2022-12-03T02:50:48.058Z,83.59
2022-12-03T02:53:21.403Z,83.50
2022-12-03T02:55:50.060Z,83.29
2022-12-03T02:58:18.812Z,83.30
2022-12-03T03:00:46.908Z,82.90
2022-12-03T03:03:14.638Z,83.36
2022-12-03T03:05:42.410Z,83.02
2022-12-03T03:08:10.957Z,83.34
2022-12-03T03:10:39.645Z,83.36
2022-12-03T03:13:14.214Z,83.21
2022-12-03T03:15:42.377Z,82.90
2022-12-03T03:18:11.040Z,83.13
2022-12-03T03:20:39.076Z,84.24
2022-12-03T03:23:14.941Z,84.07
2022-12-03T03:25:45.651Z,83.86
2022-12-03T03:28:13.945Z,83.63
2022-12-03T03:30:41.830Z,83.41
2022-12-03T03:33:09.832Z,83.48
2022-12-03T03:35:37.833Z,82.87
2022-12-03T03:38:05.424Z,83.39
2022-12-03T03:40:33.205Z,82.92
2022-12-03T03:43:01.581Z,83.08
2022-12-03T03:45:29.815Z,83.12
2022-12-03T03:47:59.840Z,83.57
2022-12-03T03:50:28.778Z,83.36
2022-12-03T03:52:56.934Z,83.74
2022-12-03T03:55:24.846Z,83.48
2022-12-03T03:57:52.433Z,83.46
2022-12-03T04:00:20.358Z,83.36
2022-12-03T04:02:47.959Z,83.06
2022-12-03T04:05:20.850Z,83.13
2022-12-03T04:07:48.471Z,83.00
2022-12-03T04:10:34.949Z,83.13
2022-12-03T04:13:02.680Z,83.11
2022-12-03T04:15:30.297Z,82.62
2022-12-03T04:18:16.108Z,82.84
2022-12-03T04:20:44.240Z,82.80
2022-12-03T04:23:11.556Z,82.67
2022-12-03T04:25:57.966Z,82.75
2022-12-03T04:28:44.120Z,82.81
2022-12-03T04:31:30.363Z,82.50
2022-12-03T04:34:15.972Z,82.63
2022-12-03T04:36:43.610Z,82.70
2022-12-03T04:39:11.261Z,82.30
2022-12-03T04:41:39.222Z,82.67
2022-12-03T04:44:25.128Z,82.50
2022-12-03T04:46:52.616Z,82.43
2022-12-03T04:49:20.268Z,82.27
2022-12-03T04:51:47.882Z,82.23
2022-12-03T04:54:15.881Z,82.05
2022-12-03T04:56:43.273Z,82.04
2022-12-03T04:59:15.777Z,81.60
2022-12-03T05:01:44.223Z,81.70
2022-12-03T05:04:12.471Z,81.74
2022-12-03T05:06:40.713Z,81.97
2022-12-03T05:09:09.144Z,81.87
2022-12-03T05:11:36.628Z,81.58
2022-12-03T05:14:04.147Z,81.32
2022-12-03T05:16:32.040Z,81.95
2022-12-03T05:18:59.632Z,81.59
2022-12-03T05:21:27.155Z,81.46
2022-12-03T05:23:54.895Z,81.54
2022-12-03T05:26:22.636Z,81.33
2022-12-03T05:28:50.473Z,81.68
2022-12-03T05:31:18.239Z,81.55
2022-12-03T05:33:46.139Z,81.84
2022-12-03T05:36:13.642Z,81.36
2022-12-03T05:38:41.164Z,81.43
2022-12-03T05:41:28.305Z,81.45
2022-12-03T05:43:55.914Z,81.52
2022-12-03T05:46:23.466Z,81.13
2022-12-03T05:48:51.310Z,81.27
2022-12-03T05:51:19.026Z,81.37
2022-12-03T05:53:46.652Z,81.25
2022-12-03T05:56:14.175Z,81.81
2022-12-03T05:58:41.746Z,81.42
2022-12-03T06:01:09.157Z,81.14
2022-12-03T06:03:36.599Z,81.58
2022-12-03T06:06:04.492Z,81.75
2022-12-03T06:08:31.923Z,81.19
2022-12-03T06:10:59.660Z,81.16
2022-12-03T06:13:27.184Z,81.06
2022-12-03T06:15:55.049Z,80.93
2022-12-03T06:18:22.497Z,80.73
2022-12-03T06:20:50.175Z,80.92
2022-12-03T06:23:18.043Z,81.31
2022-12-03T06:25:45.933Z,81.66
2022-12-03T06:28:13.195Z,81.84
2022-12-03T06:30:40.670Z,81.31
2022-12-03T06:33:08.197Z,81.42
2022-12-03T06:35:35.673Z,81.22
2022-12-03T06:38:03.343Z,81.41
2022-12-03T06:40:31.054Z,81.17
2022-12-03T06:42:58.507Z,81.16
2022-12-03T06:45:26.153Z,81.04
2022-12-03T06:47:53.777Z,80.78
2022-12-03T06:50:21.367Z,80.83
2022-12-03T06:52:49.063Z,80.90
2022-12-03T06:55:16.686Z,80.87
2022-12-03T06:57:44.212Z,81.10
2022-12-03T07:00:12.675Z,81.11
2022-12-03T07:02:40.243Z,81.15
2022-12-03T07:05:08.518Z,80.97
2022-12-03T07:07:35.809Z,81.29
2022-12-03T07:10:03.695Z,81.11
2022-12-03T07:12:32.070Z,80.97
2022-12-03T07:14:59.687Z,80.84
2022-12-03T07:17:27.165Z,80.37
2022-12-03T07:19:54.889Z,80.04
2022-12-03T07:22:22.168Z,80.33
2022-12-03T07:24:49.700Z,80.31
2022-12-03T07:27:17.232Z,80.07
2022-12-03T07:29:45.079Z,80.18
2022-12-03T07:32:12.708Z,79.68
2022-12-03T07:34:40.237Z,80.08
2022-12-03T07:37:07.648Z,80.13
2022-12-03T07:39:35.225Z,79.88
2022-12-03T07:42:02.645Z,79.71
2022-12-03T07:44:32.034Z,79.27
2022-12-03T07:46:59.787Z,79.41
2022-12-03T07:49:27.199Z,79.33
2022-12-03T07:51:54.717Z,79.56
2022-12-03T07:54:22.189Z,79.19
2022-12-03T07:56:49.719Z,79.89
2022-12-03T07:59:18.103Z,79.95
2022-12-03T08:01:46.311Z,79.52
2022-12-03T08:04:15.100Z,79.93
2022-12-03T08:06:42.545Z,79.71
2022-12-03T08:09:15.773Z,79.37
2022-12-03T08:11:45.547Z,79.38
2022-12-03T08:14:17.262Z,79.10
2022-12-03T08:16:46.228Z,79.44
2022-12-03T08:19:17.762Z,79.44
2022-12-03T08:21:45.731Z,79.25
2022-12-03T08:24:18.829Z,79.06
2022-12-03T08:26:48.113Z,79.37
2022-12-03T08:29:18.735Z,79.12
2022-12-03T08:31:52.348Z,78.99
2022-12-03T08:34:22.737Z,78.78
2022-12-03T08:36:51.937Z,78.43
2022-12-03T08:39:19.427Z,78.18
2022-12-03T08:42:13.826Z,78.29
2022-12-03T08:44:41.732Z,77.94
2022-12-03T08:47:13.281Z,77.72
2022-12-03T08:49:41.128Z,77.09
2022-12-03T08:52:20.751Z,77.11
2022-12-03T08:54:57.424Z,76.77
2022-12-03T08:57:34.128Z,76.47
2022-12-03T09:00:24.141Z,75.86
2022-12-03T09:02:54.135Z,75.51
2022-12-03T09:05:34.874Z,75.01
2022-12-03T09:08:02.866Z,74.68
2022-12-03T09:10:30.435Z,74.25
2022-12-03T09:12:58.137Z,73.67
2022-12-03T09:15:25.760Z,72.97
2022-12-03T09:17:53.761Z,72.40
2022-12-03T09:20:21.735Z,71.92
2022-12-03T09:22:49.348Z,71.93
2022-12-03T09:25:17.266Z,72.21
2022-12-03T09:27:44.708Z,70.89
2022-12-03T09:30:12.613Z,71.45
2022-12-03T09:32:40.465Z,71.38
2022-12-03T09:35:08.760Z,71.57
2022-12-03T09:37:36.153Z,71.57
2022-12-03T09:40:04.614Z,71.72
2022-12-03T09:42:32.472Z,72.01
2022-12-03T09:45:00.477Z,71.47
2022-12-03T09:47:27.778Z,71.69
2022-12-03T09:49:56.278Z,72.76
2022-12-03T09:52:28.168Z,71.84
2022-12-03T09:54:55.978Z,71.49
2022-12-03T09:57:23.786Z,71.30
2022-12-03T09:59:51.587Z,70.37
2022-12-03T10:02:25.786Z,70.00
2022-12-03T10:04:54.199Z,70.86
2022-12-03T10:07:21.889Z,71.01
2022-12-03T10:09:49.789Z,70.42
2022-12-03T10:12:21.784Z,69.21
2022-12-03T10:14:49.792Z,67.76
2022-12-03T10:17:17.851Z,66.13
2022-12-03T10:19:45.795Z,65.11
2022-12-03T10:22:13.797Z,65.27
2022-12-03T10:24:41.522Z,65.32
2022-12-03T10:27:29.802Z,64.25
2022-12-03T10:29:59.081Z,64.45
2022-12-03T10:32:46.642Z,64.54
2022-12-03T10:35:27.177Z,63.78
2022-12-03T10:37:57.508Z,63.89
2022-12-03T10:40:27.806Z,63.41
2022-12-03T10:43:19.767Z,62.51
2022-12-03T10:45:48.889Z,61.79
2022-12-03T10:48:16.810Z,60.98
2022-12-03T10:51:04.508Z,61.27
2022-12-03T10:53:34.509Z,60.68
2022-12-03T10:56:05.364Z,61.54
2022-12-03T10:58:37.823Z,62.13
2022-12-03T11:01:19.911Z,63.12
2022-12-03T11:03:48.161Z,62.75
2022-12-03T11:06:18.370Z,62.38
2022-12-03T11:08:54.754Z,62.09
2022-12-03T11:11:29.823Z,61.79
2022-12-03T11:14:01.725Z,62.50
2022-12-03T11:16:41.521Z,62.36
2022-12-03T11:19:18.198Z,62.34
2022-12-03T11:22:04.636Z,62.67
2022-12-03T11:24:33.723Z,62.86
2022-12-03T11:27:01.111Z,63.98
2022-12-03T11:29:48.522Z,63.84
2022-12-03T11:32:43.490Z,64.88
2022-12-03T11:35:37.531Z,65.05
2022-12-03T11:38:38.751Z,64.40
2022-12-03T11:41:18.208Z,64.15
2022-12-03T11:43:57.644Z,63.50
2022-12-03T11:46:26.186Z,62.55
2022-12-03T11:48:55.559Z,61.28
2022-12-03T11:51:25.121Z,59.48
2022-12-03T11:53:54.541Z,58.85
2022-12-03T11:56:29.848Z,57.28
2022-12-03T11:59:02.542Z,57.66
2022-12-03T12:01:39.116Z,57.99
2022-12-03T12:04:09.187Z,56.70
2022-12-03T12:06:42.469Z,55.49
2022-12-03T12:09:10.129Z,54.03
2022-12-03T12:11:40.855Z,52.65
2022-12-03T12:14:09.660Z,52.94
2022-12-03T12:16:51.127Z,53.03
2022-12-03T12:19:38.130Z,53.10
2022-12-03T12:22:26.504Z,53.21
2022-12-03T12:24:54.582Z,53.90
2022-12-03T12:27:34.560Z,55.30
2022-12-03T12:30:08.134Z,56.72
2022-12-03T12:32:45.876Z,57.12
2022-12-03T12:35:19.562Z,58.27
2022-12-03T12:38:00.176Z,58.35
2022-12-03T12:40:30.743Z,58.87
2022-12-03T12:43:14.362Z,59.03
2022-12-03T12:45:43.434Z,59.66
2022-12-03T12:48:10.730Z,60.88
2022-12-03T12:50:38.881Z,61.55
2022-12-03T12:53:26.398Z,62.30
2022-12-03T12:56:01.009Z,62.77
2022-12-03T12:58:32.991Z,62.95
2022-12-03T13:01:05.638Z,63.02
2022-12-03T13:03:35.575Z,63.38
2022-12-03T13:06:03.669Z,63.86
2022-12-03T13:08:43.885Z,63.95
2022-12-03T13:11:25.670Z,64.07
2022-12-03T13:13:53.573Z,64.35
2022-12-03T13:16:32.205Z,64.69
2022-12-03T13:19:01.152Z,64.93
2022-12-03T13:21:39.202Z,64.04
2022-12-03T13:24:36.901Z,64.34
2022-12-03T13:27:22.254Z,64.85
2022-12-03T13:30:14.684Z,64.95
2022-12-03T13:32:42.898Z,65.84
2022-12-03T13:35:10.465Z,65.67
2022-12-03T13:37:38.155Z,65.84
2022-12-03T13:40:21.904Z,66.12
2022-12-03T13:42:49.163Z,66.08
2022-12-03T13:45:19.906Z,66.14
2022-12-03T13:47:48.473Z,66.45
2022-12-03T13:50:35.613Z,66.88
2022-12-03T13:53:06.160Z,67.05
2022-12-03T13:55:33.678Z,67.52
2022-12-03T13:58:01.122Z,67.45
2022-12-03T14:00:28.748Z,67.33
2022-12-03T14:02:56.484Z,67.25
2022-12-03T14:05:23.824Z,67.50
2022-12-03T14:07:51.210Z,67.70
2022-12-03T14:10:18.918Z,67.57
2022-12-03T14:12:46.471Z,68.03
2022-12-03T14:15:13.803Z,68.29
2022-12-03T14:17:41.276Z,68.09
2022-12-03T14:20:09.414Z,68.37
2022-12-03T14:22:39.494Z,68.00
2022-12-03T14:25:07.932Z,68.17
2022-12-03T14:27:53.877Z,68.50
2022-12-03T14:30:21.067Z,68.92
2022-12-03T14:32:48.930Z,69.31
2022-12-03T14:35:16.418Z,69.59
2022-12-03T14:37:43.934Z,69.78
2022-12-03T14:40:14.303Z,69.69
2022-12-03T14:42:45.507Z,70.02
2022-12-03T14:45:12.712Z,70.11
2022-12-03T14:47:40.179Z,70.17
2022-12-03T14:50:08.179Z,70.35
2022-12-03T14:52:35.327Z,70.55
2022-12-03T14:55:02.731Z,70.65
2022-12-03T14:57:30.181Z,70.77
2022-12-03T14:59:57.995Z,70.83
2022-12-03T15:02:25.240Z,71.43
2022-12-03T15:04:52.951Z,71.59
2022-12-03T15:07:20.186Z,71.63
2022-12-03T15:09:47.704Z,71.64
2022-12-03T15:12:15.188Z,71.99
2022-12-03T15:14:43.004Z,72.07
2022-12-03T15:17:10.557Z,72.16
2022-12-03T15:19:37.850Z,71.80
2022-12-03T15:22:05.179Z,72.22
2022-12-03T15:24:32.971Z,72.19
2022-12-03T15:27:00.540Z,72.31
2022-12-03T15:29:27.742Z,72.61
2022-12-03T15:31:55.400Z,72.53
2022-12-03T15:34:23.474Z,72.72
2022-12-03T15:36:51.563Z,72.96
2022-12-03T15:39:18.967Z,73.71
2022-12-03T15:41:46.720Z,73.83
2022-12-03T15:44:14.198Z,74.13
2022-12-03T15:46:41.438Z,74.29
2022-12-03T15:49:08.972Z,74.28
2022-12-03T15:51:36.410Z,74.71
2022-12-03T15:54:03.830Z,74.56
2022-12-03T15:56:31.202Z,74.78
2022-12-03T15:58:58.662Z,74.84
2022-12-03T16:01:26.003Z,75.25
2022-12-03T16:03:53.468Z,75.35
2022-12-03T16:06:20.982Z,75.26
2022-12-03T16:08:48.560Z,75.25
2022-12-03T16:11:15.822Z,75.26
2022-12-03T16:13:43.209Z,75.61
2022-12-03T16:16:10.642Z,75.47
2022-12-03T16:18:38.211Z,75.63
2022-12-03T16:21:05.425Z,75.69
2022-12-03T16:23:32.770Z,75.79
2022-12-03T16:26:00.332Z,76.16
2022-12-03T16:28:27.949Z,75.96
2022-12-03T16:30:55.286Z,76.14
2022-12-03T16:33:27.533Z,76.06
2022-12-03T16:35:55.148Z,76.17
2022-12-03T16:38:23.005Z,76.35
2022-12-03T16:40:50.297Z,76.48
2022-12-03T16:43:17.889Z,76.68
2022-12-03T16:45:51.742Z,76.78
2022-12-03T16:48:19.345Z,76.83
2022-12-03T16:50:46.927Z,76.83
2022-12-03T16:53:15.008Z,76.59
2022-12-03T16:55:42.393Z,76.87
2022-12-03T16:58:09.868Z,76.83
2022-12-03T17:00:37.132Z,76.88
2022-12-03T17:03:04.668Z,76.80
2022-12-03T17:05:32.139Z,77.24
2022-12-03T17:07:59.637Z,77.08
2022-12-03T17:10:27.271Z,76.97
2022-12-03T17:13:09.326Z,77.11
2022-12-03T17:15:38.244Z,77.31
2022-12-03T17:18:06.141Z,76.82
2022-12-03T17:20:33.952Z,76.92
2022-12-03T17:23:01.146Z,76.78
2022-12-03T17:25:28.793Z,76.70
2022-12-03T17:27:56.323Z,76.57
2022-12-03T17:30:23.793Z,76.68
2022-12-03T17:32:51.328Z,76.76
2022-12-03T17:35:19.253Z,77.13
2022-12-03T17:37:47.030Z,76.96
2022-12-03T17:40:16.031Z,77.28
2022-12-03T17:42:43.553Z,77.29
2022-12-03T17:45:11.340Z,77.13
2022-12-03T17:47:38.838Z,77.32
2022-12-03T17:50:07.337Z,77.21
2022-12-03T17:52:35.051Z,77.53
2022-12-03T17:55:11.234Z,77.40
2022-12-03T17:57:40.508Z,77.33
2022-12-03T18:00:09.167Z,77.49
2022-12-03T18:02:36.430Z,77.89
2022-12-03T18:05:04.263Z,77.82
2022-12-03T18:07:31.755Z,77.99
2022-12-03T18:09:59.420Z,78.28
2022-12-03T18:12:27.038Z,78.08
2022-12-03T18:14:54.350Z,77.96
2022-12-03T18:17:21.991Z,78.46
2022-12-03T18:19:49.354Z,78.11
2022-12-03T18:22:16.889Z,78.50
2022-12-03T18:24:46.221Z,78.53
2022-12-03T18:27:15.183Z,78.67
2022-12-03T18:29:42.738Z,78.71
2022-12-03T18:32:27.082Z,78.63
2022-12-03T18:34:57.023Z,78.66
2022-12-03T18:37:27.364Z,78.55
2022-12-03T18:39:55.497Z,78.75
2022-12-03T18:42:23.460Z,78.59
2022-12-03T18:44:55.193Z,78.83
2022-12-03T18:47:24.544Z,78.78
2022-12-03T18:49:52.053Z,79.05
2022-12-03T18:52:22.070Z,78.68
2022-12-03T18:54:49.750Z,78.63
2022-12-03T18:57:17.199Z,78.69
2022-12-03T18:59:44.380Z,78.67
2022-12-03T19:05:09.419Z,78.77
2022-12-03T19:07:37.285Z,78.79
2022-12-03T19:10:05.270Z,78.54
2022-12-03T19:12:33.084Z,78.78
2022-12-03T19:15:00.391Z,79.00
2022-12-03T19:17:28.151Z,78.76
2022-12-03T19:19:55.882Z,78.89
2022-12-03T19:22:24.400Z,78.60
2022-12-03T19:24:52.088Z,78.86
2022-12-03T19:27:19.767Z,79.10
2022-12-03T19:29:50.278Z,79.00
2022-12-03T19:32:17.910Z,78.65
2022-12-03T19:34:45.399Z,78.85
2022-12-03T19:37:13.050Z,79.18
2022-12-03T19:39:40.418Z,79.01
2022-12-03T19:42:07.697Z,78.94
2022-12-03T19:44:35.098Z,79.10
2022-12-03T19:47:02.952Z,79.29
2022-12-03T19:49:30.405Z,79.11
2022-12-03T19:51:58.105Z,79.16
2022-12-03T19:54:25.386Z,78.99
2022-12-03T19:56:52.922Z,78.82
2022-12-03T19:59:20.326Z,78.94
2022-12-03T20:01:47.807Z,78.71
2022-12-03T20:04:15.429Z,78.74
2022-12-03T20:06:42.959Z,78.71
2022-12-03T20:09:13.387Z,78.73
2022-12-03T20:11:41.936Z,78.56
2022-12-03T20:14:11.871Z,78.81
2022-12-03T20:16:39.436Z,78.54
2022-12-03T20:19:08.247Z,78.81
2022-12-03T20:21:37.229Z,79.27
2022-12-03T20:24:04.984Z,79.34
2022-12-03T20:26:32.617Z,79.47
2022-12-03T20:29:00.353Z,79.41
2022-12-03T20:31:30.533Z,79.44
2022-12-03T20:34:00.432Z,79.40
2022-12-03T20:36:29.134Z,78.69
2022-12-03T20:38:59.004Z,78.83
2022-12-03T20:41:26.736Z,78.75
2022-12-03T20:43:54.444Z,78.71
2022-12-03T20:46:26.840Z,78.64
2022-12-03T20:48:55.155Z,78.37
2022-12-03T20:51:24.892Z,78.32
2022-12-03T20:53:52.635Z,78.51
2022-12-03T20:56:28.995Z,78.72
2022-12-03T20:58:56.744Z,78.65
2022-12-03T21:01:26.846Z,78.83
2022-12-03T21:03:56.140Z,79.15
2022-12-03T21:06:26.015Z,78.88
2022-12-03T21:08:54.128Z,79.10
2022-12-03T21:11:24.455Z,78.66
2022-12-03T21:13:53.007Z,78.77
2022-12-03T21:16:45.568Z,78.56
2022-12-03T21:19:10.899Z,78.92
2022-12-03T21:21:38.461Z,78.55
2022-12-03T21:24:06.320Z,78.93
2022-12-03T21:26:34.022Z,78.49
2022-12-03T21:29:01.288Z,78.65
2022-12-03T21:31:30.550Z,78.74
2022-12-03T21:33:58.156Z,78.62
2022-12-03T21:36:26.157Z,78.41
2022-12-03T21:38:53.455Z,78.85
2022-12-03T21:41:20.910Z,78.93
2022-12-03T21:43:48.242Z,78.74
2022-12-03T21:47:09.144Z,79.04
2022-12-03T21:49:04.970Z,78.67
2022-12-03T21:51:32.776Z,78.28
2022-12-03T21:54:00.170Z,78.52
2022-12-03T21:56:27.304Z,78.69
2022-12-03T21:58:55.171Z,78.45
2022-12-03T22:01:24.082Z,78.38
2022-12-03T22:03:51.992Z,78.56
2022-12-03T22:06:20.010Z,78.42
2022-12-03T22:08:48.150Z,78.43
2022-12-03T22:11:21.012Z,78.78
2022-12-03T22:13:48.925Z,78.61
2022-12-03T22:16:22.170Z,78.22
2022-12-03T22:18:50.020Z,78.46
2022-12-03T22:21:19.935Z,78.43
2022-12-03T22:23:47.796Z,78.15
2022-12-03T22:26:17.932Z,78.45
2022-12-03T22:28:46.857Z,77.79
2022-12-03T22:31:14.946Z,77.62
2022-12-03T22:33:43.802Z,77.66
2022-12-03T22:36:19.682Z,77.71
2022-12-03T22:38:47.199Z,77.47
2022-12-03T22:41:16.035Z,77.46
2022-12-03T22:43:43.482Z,77.85
2022-12-03T22:46:12.838Z,77.88
2022-12-03T22:48:42.033Z,78.02
2022-12-03T22:51:17.505Z,78.16
2022-12-03T22:53:45.198Z,77.92
2022-12-03T22:56:13.015Z,77.90
2022-12-03T22:58:40.835Z,77.96
2022-12-03T23:01:09.052Z,78.06
2022-12-03T23:03:37.120Z,77.82
2022-12-03T23:06:11.343Z,77.48
2022-12-03T23:08:39.051Z,77.83
2022-12-03T23:11:07.486Z,77.76
2022-12-03T23:13:35.512Z,77.57
2022-12-03T23:16:03.381Z,77.47
2022-12-03T23:18:31.214Z,77.45
2022-12-03T23:20:58.486Z,77.45
2022-12-03T23:23:27.601Z,77.48
2022-12-03T23:26:07.449Z,77.56
2022-12-03T23:28:37.219Z,77.46
2022-12-03T23:31:06.138Z,77.31
2022-12-03T23:33:38.122Z,76.91
2022-12-03T23:36:07.070Z,77.03
2022-12-03T23:38:34.961Z,77.02
2022-12-03T23:41:06.612Z,77.72
2022-12-03T23:43:35.216Z,77.74
2022-12-03T23:46:07.262Z,77.66
2022-12-03T23:48:34.965Z,77.65
2022-12-03T23:51:10.320Z,78.07
2022-12-03T23:53:38.530Z,78.14
2022-12-03T23:56:11.530Z,78.15
2022-12-03T23:58:38.900Z,78.23
